sensor_id;sensor_type;location;lat;lon;timestamp;pressure;altitude;pressure_sealevel;temperature;humidity
77321;BME280;66382;52.252;8.780;2024-01-30T00:01:25;101818.84;;;6.37;63.41
77321;BME280;66382;52.252;8.780;2024-01-30T00:03:50;101817.16;;;6.36;63.45
77321;BME280;66382;52.252;8.780;2024-01-30T00:06:18;101822.75;;;6.33;62.32
77321;BME280;66382;52.252;8.780;2024-01-30T00:08:43;101813.19;;;6.31;63.14
77321;BME280;66382;52.252;8.780;2024-01-30T00:11:09;101820.91;;;6.34;62.99
77321;BME280;66382;52.252;8.780;2024-01-30T00:13:34;101830.75;;;6.33;62.64
77321;BME280;66382;52.252;8.780;2024-01-30T00:16:01;101820.91;;;6.34;62.47
77321;BME280;66382;52.252;8.780;2024-01-30T00:18:26;101830.75;;;6.33;62.64
77321;BME280;66382;52.252;8.780;2024-01-30T00:20:52;101829.03;;;6.32;62.89
77321;BME280;66382;52.252;8.780;2024-01-30T00:23:17;101819.22;;;6.33;62.49
77321;BME280;66382;52.252;8.780;2024-01-30T00:25:43;101826.38;;;6.32;62.99
77321;BME280;66382;52.252;8.780;2024-01-30T00:28:08;101821.88;;;6.33;62.69
77321;BME280;66382;52.252;8.780;2024-01-30T00:30:34;101828.19;;;6.32;62.73
77321;BME280;66382;52.252;8.780;2024-01-30T00:33:00;101829.19;;;6.31;62.73
77321;BME280;66382;52.252;8.780;2024-01-30T00:35:26;101828.31;;;6.30;62.67
77321;BME280;66382;52.252;8.780;2024-01-30T00:37:51;101836.28;;;6.30;63.31
77321;BME280;66382;52.252;8.780;2024-01-30T00:40:17;101820.84;;;6.24;62.35
77321;BME280;66382;52.252;8.780;2024-01-30T00:42:42;101825.66;;;6.30;63.00
77321;BME280;66382;52.252;8.780;2024-01-30T00:45:12;101826.25;;;6.34;62.89
77321;BME280;66382;52.252;8.780;2024-01-30T00:47:37;101831.56;;;6.34;62.36
77321;BME280;66382;52.252;8.780;2024-01-30T00:50:05;101829.03;;;6.32;62.90
77321;BME280;66382;52.252;8.780;2024-01-30T00:52:31;101816.97;;;6.28;62.54
77321;BME280;66382;52.252;8.780;2024-01-30T00:54:56;101820.56;;;6.27;63.18
77321;BME280;66382;52.252;8.780;2024-01-30T00:57:21;101820.97;;;6.22;62.41
77321;BME280;66382;52.252;8.780;2024-01-30T00:59:47;101826.56;;;6.19;63.10
77321;BME280;66382;52.252;8.780;2024-01-30T01:02:12;101818.22;;;6.13;62.68
77321;BME280;66382;52.252;8.780;2024-01-30T01:04:38;101797.09;;;6.00;63.07
77321;BME280;66382;52.252;8.780;2024-01-30T01:07:05;101825.81;;;6.17;62.82
77321;BME280;66382;52.252;8.780;2024-01-30T01:09:30;101820.66;;;6.16;62.87
77321;BME280;66382;52.252;8.780;2024-01-30T01:11:56;101827.75;;;6.15;62.90
77321;BME280;66382;52.252;8.780;2024-01-30T01:14:21;101800.47;;;6.02;63.11
77321;BME280;66382;52.252;8.780;2024-01-30T01:16:47;101823.69;;;6.11;62.34
77321;BME280;66382;52.252;8.780;2024-01-30T01:19:12;101816.91;;;6.07;62.75
77321;BME280;66382;52.252;8.780;2024-01-30T01:21:37;101826.13;;;6.03;62.74
77321;BME280;66382;52.252;8.780;2024-01-30T01:24:05;101801.34;;;5.91;63.01
77321;BME280;66382;52.252;8.780;2024-01-30T01:26:30;101816.09;;;5.95;62.98
77321;BME280;66382;52.252;8.780;2024-01-30T01:28:56;101812.00;;;5.91;63.26
77321;BME280;66382;52.252;8.780;2024-01-30T01:31:21;101806.31;;;5.85;63.29
77321;BME280;66382;52.252;8.780;2024-01-30T01:33:46;101809.34;;;5.80;63.65
77321;BME280;66382;52.252;8.780;2024-01-30T01:36:13;101801.63;;;5.77;63.32
77321;BME280;66382;52.252;8.780;2024-01-30T01:38:38;101797.72;;;5.81;63.41
77321;BME280;66382;52.252;8.780;2024-01-30T01:41:05;101791.22;;;5.74;63.52
77321;BME280;66382;52.252;8.780;2024-01-30T01:43:31;101794.38;;;5.79;63.43
77321;BME280;66382;52.252;8.780;2024-01-30T01:45:56;101790.25;;;5.75;63.43
77321;BME280;66382;52.252;8.780;2024-01-30T01:48:22;101790.03;;;5.67;63.24
77321;BME280;66382;52.252;8.780;2024-01-30T01:50:47;101791.72;;;5.68;63.62
77321;BME280;66382;52.252;8.780;2024-01-30T01:53:13;101792.81;;;5.65;63.09
77321;BME280;66382;52.252;8.780;2024-01-30T01:55:40;101789.44;;;5.63;63.62
77321;BME280;66382;52.252;8.780;2024-01-30T01:58:07;101788.69;;;5.61;63.67
77321;BME280;66382;52.252;8.780;2024-01-30T02:00:34;101783.06;;;5.54;63.35
77321;BME280;66382;52.252;8.780;2024-01-30T02:03:00;101789.47;;;5.52;63.84
77321;BME280;66382;52.252;8.780;2024-01-30T02:05:26;101784.25;;;5.50;63.43
77321;BME280;66382;52.252;8.780;2024-01-30T02:07:52;101786.91;;;5.50;63.63
77321;BME280;66382;52.252;8.780;2024-01-30T02:10:17;101779.19;;;5.47;63.68
77321;BME280;66382;52.252;8.780;2024-01-30T02:12:43;101779.94;;;5.38;64.11
77321;BME280;66382;52.252;8.780;2024-01-30T02:15:13;101786.09;;;5.38;63.81
77321;BME280;66382;52.252;8.780;2024-01-30T02:17:38;101775.09;;;5.43;63.59
77321;BME280;66382;52.252;8.780;2024-01-30T02:20:04;101773.41;;;5.42;64.02
77321;BME280;66382;52.252;8.780;2024-01-30T02:22:33;101774.34;;;5.41;63.81
77321;BME280;66382;52.252;8.780;2024-01-30T02:24:59;101767.47;;;5.38;63.86
77321;BME280;66382;52.252;8.780;2024-01-30T02:27:24;101766.53;;;5.39;63.76
77321;BME280;66382;52.252;8.780;2024-01-30T02:29:50;101766.25;;;5.43;63.82
77321;BME280;66382;52.252;8.780;2024-01-30T02:32:15;101753.81;;;5.43;63.94
77321;BME280;66382;52.252;8.780;2024-01-30T02:34:41;101759.84;;;5.45;64.02
77321;BME280;66382;52.252;8.780;2024-01-30T02:37:06;101753.69;;;5.45;64.17
77321;BME280;66382;52.252;8.780;2024-01-30T02:39:33;101755.38;;;5.46;64.09
77321;BME280;66382;52.252;8.780;2024-01-30T02:41:59;101757.91;;;5.47;64.08
77321;BME280;66382;52.252;8.780;2024-01-30T02:44:24;101743.06;;;5.45;64.24
77321;BME280;66382;52.252;8.780;2024-01-30T02:46:49;101755.13;;;5.49;64.58
77321;BME280;66382;52.252;8.780;2024-01-30T02:49:15;101745.47;;;5.48;64.80
77321;BME280;66382;52.252;8.780;2024-01-30T02:51:40;101748.00;;;5.49;64.03
77321;BME280;66382;52.252;8.780;2024-01-30T02:54:06;101739.16;;;5.49;64.22
77321;BME280;66382;52.252;8.780;2024-01-30T02:56:33;101737.38;;;5.49;64.45
77321;BME280;66382;52.252;8.780;2024-01-30T02:58:58;101730.22;;;5.50;64.32
77321;BME280;66382;52.252;8.780;2024-01-30T03:01:23;101731.19;;;5.49;64.41
77321;BME280;66382;52.252;8.780;2024-01-30T03:03:49;101731.19;;;5.49;64.47
77321;BME280;66382;52.252;8.780;2024-01-30T03:06:14;101720.69;;;5.47;64.58
77321;BME280;66382;52.252;8.780;2024-01-30T03:08:40;101717.88;;;5.49;64.41
77321;BME280;66382;52.252;8.780;2024-01-30T03:11:05;101715.47;;;5.46;66.14
77321;BME280;66382;52.252;8.780;2024-01-30T03:13:32;101717.03;;;5.48;64.84
77321;BME280;66382;52.252;8.780;2024-01-30T03:15:57;101705.44;;;5.49;64.94
77321;BME280;66382;52.252;8.780;2024-01-30T03:18:23;101710.63;;;5.51;64.88
77321;BME280;66382;52.252;8.780;2024-01-30T03:20:48;101708.69;;;5.53;65.15
77321;BME280;66382;52.252;8.780;2024-01-30T03:23:14;101712.06;;;5.55;65.16
77321;BME280;66382;52.252;8.780;2024-01-30T03:25:39;101712.66;;;5.58;64.63
77321;BME280;66382;52.252;8.780;2024-01-30T03:28:05;101708.66;;;5.64;64.81
77321;BME280;66382;52.252;8.780;2024-01-30T03:30:32;101700.53;;;5.66;64.71
77321;BME280;66382;52.252;8.780;2024-01-30T03:32:57;101705.00;;;5.65;65.01
77321;BME280;66382;52.252;8.780;2024-01-30T03:35:23;101690.53;;;5.58;65.08
77321;BME280;66382;52.252;8.780;2024-01-30T03:37:48;101711.91;;;5.68;65.02
77321;BME280;66382;52.252;8.780;2024-01-30T03:40:14;101698.34;;;5.71;64.86
77321;BME280;66382;52.252;8.780;2024-01-30T03:42:39;101699.91;;;5.73;64.95
77321;BME280;66382;52.252;8.780;2024-01-30T03:45:06;101695.44;;;5.74;65.00
77321;BME280;66382;52.252;8.780;2024-01-30T03:47:33;101693.47;;;5.76;65.09
77321;BME280;66382;52.252;8.780;2024-01-30T03:49:58;101688.16;;;5.76;64.98
77321;BME280;66382;52.252;8.780;2024-01-30T03:52:24;101689.25;;;5.73;65.30
77321;BME280;66382;52.252;8.780;2024-01-30T03:54:49;101691.69;;;5.76;65.31
77321;BME280;66382;52.252;8.780;2024-01-30T03:57:14;101679.47;;;5.74;65.11
77321;BME280;66382;52.252;8.780;2024-01-30T03:59:41;101689.59;;;5.80;65.00
77321;BME280;66382;52.252;8.780;2024-01-30T04:02:07;101684.28;;;5.80;64.82
77321;BME280;66382;52.252;8.780;2024-01-30T04:04:34;101687.19;;;5.77;65.21
77321;BME280;66382;52.252;8.780;2024-01-30T04:06:59;101673.91;;;5.77;64.96
77321;BME280;66382;52.252;8.780;2024-01-30T04:09:25;101664.84;;;5.68;64.97
77321;BME280;66382;52.252;8.780;2024-01-30T04:11:50;101678.22;;;5.78;65.57
77321;BME280;66382;52.252;8.780;2024-01-30T04:14:15;101687.19;;;5.77;65.18
77321;BME280;66382;52.252;8.780;2024-01-30T04:16:41;101680.88;;;5.78;65.15
77321;BME280;66382;52.252;8.780;2024-01-30T04:19:06;101676.28;;;5.80;65.30
77321;BME280;66382;52.252;8.780;2024-01-30T04:21:33;101674.34;;;5.82;65.29
77321;BME280;66382;52.252;8.780;2024-01-30T04:23:59;101678.13;;;5.79;64.96
77321;BME280;66382;52.252;8.780;2024-01-30T04:26:24;101663.50;;;5.74;65.24
77321;BME280;66382;52.252;8.780;2024-01-30T04:28:50;101662.41;;;5.76;65.25
77321;BME280;66382;52.252;8.780;2024-01-30T04:31:15;101667.97;;;5.73;66.10
77321;BME280;66382;52.252;8.780;2024-01-30T04:33:41;101671.50;;;5.74;65.44
77321;BME280;66382;52.252;8.780;2024-01-30T04:36:08;101664.72;;;5.70;65.43
77321;BME280;66382;52.252;8.780;2024-01-30T04:38:35;101680.31;;;5.74;65.11
77321;BME280;66382;52.252;8.780;2024-01-30T04:41:01;101650.50;;;5.59;65.93
77321;BME280;66382;52.252;8.780;2024-01-30T04:43:26;101672.34;;;5.74;65.33
77321;BME280;66382;52.252;8.780;2024-01-30T04:45:52;101674.16;;;5.74;65.72
77321;BME280;66382;52.252;8.780;2024-01-30T04:48:17;101680.16;;;5.76;65.32
77321;BME280;66382;52.252;8.780;2024-01-30T04:50:42;101670.50;;;5.75;65.51
77321;BME280;66382;52.252;8.780;2024-01-30T04:53:08;101676.66;;;5.75;65.86
77321;BME280;66382;52.252;8.780;2024-01-30T04:55:35;101669.44;;;5.66;65.98
77321;BME280;66382;52.252;8.780;2024-01-30T04:58:01;101681.88;;;5.77;66.42
77321;BME280;66382;52.252;8.780;2024-01-30T05:00:26;101677.28;;;5.79;65.31
77321;BME280;66382;52.252;8.780;2024-01-30T05:02:52;101664.91;;;5.78;65.70
77321;BME280;66382;52.252;8.780;2024-01-30T05:05:17;101664.91;;;5.78;65.53
77321;BME280;66382;52.252;8.780;2024-01-30T05:07:43;101672.66;;;5.81;65.53
77321;BME280;66382;52.252;8.780;2024-01-30T05:10:09;101670.84;;;5.81;65.71
77321;BME280;66382;52.252;8.780;2024-01-30T05:12:35;101644.81;;;5.64;65.28
77321;BME280;66382;52.252;8.780;2024-01-30T05:15:01;101666.88;;;5.76;65.19
77321;BME280;66382;52.252;8.780;2024-01-30T05:17:26;101667.84;;;5.75;65.46
77321;BME280;66382;52.252;8.780;2024-01-30T05:19:52;101673.44;;;5.72;65.67
77321;BME280;66382;52.252;8.780;2024-01-30T05:22:17;101670.16;;;5.68;65.51
77321;BME280;66382;52.252;8.780;2024-01-30T05:24:43;101668.75;;;5.64;65.88
77321;BME280;66382;52.252;8.780;2024-01-30T05:27:08;101670.06;;;5.70;65.29
77321;BME280;66382;52.252;8.780;2024-01-30T05:29:35;101664.84;;;5.68;65.53
77321;BME280;66382;52.252;8.780;2024-01-30T05:32:00;101666.41;;;5.71;65.73
77321;BME280;66382;52.252;8.780;2024-01-30T05:34:26;101666.56;;;5.69;65.65
77321;BME280;66382;52.252;8.780;2024-01-30T05:36:51;101662.66;;;5.73;66.47
77321;BME280;66382;52.252;8.780;2024-01-30T05:39:17;101660.13;;;5.72;65.85
77321;BME280;66382;52.252;8.780;2024-01-30T05:41:42;101656.81;;;5.79;66.04
77321;BME280;66382;52.252;8.780;2024-01-30T05:44:08;101662.72;;;5.83;66.22
77321;BME280;66382;52.252;8.780;2024-01-30T05:46:35;101660.50;;;5.88;66.32
77321;BME280;66382;52.252;8.780;2024-01-30T05:49:01;101643.44;;;5.91;66.15
77321;BME280;66382;52.252;8.780;2024-01-30T05:51:26;101654.09;;;5.91;66.31
77321;BME280;66382;52.252;8.780;2024-01-30T05:53:52;101615.63;;;5.74;66.00
77321;BME280;66382;52.252;8.780;2024-01-30T05:56:17;101643.81;;;5.97;66.18
77321;BME280;66382;52.252;8.780;2024-01-30T05:58:42;101650.13;;;5.96;66.51
77321;BME280;66382;52.252;8.780;2024-01-30T06:01:08;101637.28;;;5.90;65.98
77321;BME280;66382;52.252;8.780;2024-01-30T06:03:35;101640.41;;;5.95;66.02
77321;BME280;66382;52.252;8.780;2024-01-30T06:06:00;101639.91;;;6.01;65.96
77321;BME280;66382;52.252;8.780;2024-01-30T06:08:26;101641.19;;;6.07;66.19
77321;BME280;66382;52.252;8.780;2024-01-30T06:10:51;101640.22;;;6.08;66.12
77321;BME280;66382;52.252;8.780;2024-01-30T06:13:17;101642.75;;;6.10;66.15
77321;BME280;66382;52.252;8.780;2024-01-30T06:15:42;101643.03;;;6.07;67.20
77321;BME280;66382;52.252;8.780;2024-01-30T06:18:08;101643.97;;;6.06;66.14
77321;BME280;66382;52.252;8.780;2024-01-30T06:20:35;101633.50;;;6.04;66.12
77321;BME280;66382;52.252;8.780;2024-01-30T06:23:00;101644.13;;;6.04;66.12
77321;BME280;66382;52.252;8.780;2024-01-30T06:25:29;101644.25;;;6.02;65.89
77321;BME280;66382;52.252;8.780;2024-01-30T06:27:55;101640.88;;;6.00;65.85
77321;BME280;66382;52.252;8.780;2024-01-30T06:30:20;101646.19;;;6.00;66.07
77321;BME280;66382;52.252;8.780;2024-01-30T06:32:46;101639.31;;;5.98;65.86
77321;BME280;66382;52.252;8.780;2024-01-30T06:35:11;101646.47;;;5.97;65.98
77321;BME280;66382;52.252;8.780;2024-01-30T06:37:38;101648.56;;;5.94;66.39
77321;BME280;66382;52.252;8.780;2024-01-30T06:40:04;101645.41;;;5.89;66.01
77321;BME280;66382;52.252;8.780;2024-01-30T06:42:30;101656.63;;;5.92;66.17
77321;BME280;66382;52.252;8.780;2024-01-30T06:44:55;101654.22;;;5.89;66.00
77321;BME280;66382;52.252;8.780;2024-01-30T06:47:21;101665.59;;;5.91;66.28
77321;BME280;66382;52.252;8.780;2024-01-30T06:49:46;101650.72;;;5.89;66.44
77321;BME280;66382;52.252;8.780;2024-01-30T06:52:12;101652.53;;;5.88;66.56
77321;BME280;66382;52.252;8.780;2024-01-30T06:54:39;101656.75;;;5.91;66.22
77321;BME280;66382;52.252;8.780;2024-01-30T06:57:04;101653.97;;;5.92;66.57
77321;BME280;66382;52.252;8.780;2024-01-30T06:59:31;101658.31;;;5.93;66.51
77321;BME280;66382;52.252;8.780;2024-01-30T07:01:56;101640.94;;;5.89;66.09
77321;BME280;66382;52.252;8.780;2024-01-30T07:04:21;101652.78;;;5.96;65.99
77321;BME280;66382;52.252;8.780;2024-01-30T07:06:47;101648.16;;;5.98;66.03
77321;BME280;66382;52.252;8.780;2024-01-30T07:09:12;101647.19;;;5.99;66.31
77321;BME280;66382;52.252;8.780;2024-01-30T07:11:39;101631.97;;;5.90;66.74
77321;BME280;66382;52.252;8.780;2024-01-30T07:14:05;101638.22;;;6.00;66.27
77321;BME280;66382;52.252;8.780;2024-01-30T07:16:30;101642.44;;;6.03;66.90
77321;BME280;66382;52.252;8.780;2024-01-30T07:18:56;101622.88;;;5.93;66.01
77321;BME280;66382;52.252;8.780;2024-01-30T07:21:24;101635.56;;;6.00;66.98
77321;BME280;66382;52.252;8.780;2024-01-30T07:23:50;101613.97;;;5.82;66.53
77321;BME280;66382;52.252;8.780;2024-01-30T07:26:15;101638.09;;;6.02;67.03
77321;BME280;66382;52.252;8.780;2024-01-30T07:28:42;101637.25;;;6.01;66.46
77321;BME280;66382;52.252;8.780;2024-01-30T07:31:08;101638.94;;;6.02;66.42
77321;BME280;66382;52.252;8.780;2024-01-30T07:33:33;101643.97;;;6.06;66.71
77321;BME280;66382;52.252;8.780;2024-01-30T07:35:58;101660.56;;;6.09;66.38
77321;BME280;66382;52.252;8.780;2024-01-30T07:38:24;101653.41;;;6.10;66.90
77321;BME280;66382;52.252;8.780;2024-01-30T07:40:49;101652.91;;;6.16;66.54
77321;BME280;66382;52.252;8.780;2024-01-30T07:43:15;101656.97;;;6.20;66.69
77321;BME280;66382;52.252;8.780;2024-01-30T07:45:42;101656.69;;;6.23;66.77
77321;BME280;66382;52.252;8.780;2024-01-30T07:48:07;101655.75;;;6.24;66.31
77321;BME280;66382;52.252;8.780;2024-01-30T07:50:33;101652.25;;;6.23;66.44
77321;BME280;66382;52.252;8.780;2024-01-30T07:52:59;101650.41;;;6.24;66.23
77321;BME280;66382;52.252;8.780;2024-01-30T07:55:25;101648.97;;;6.20;66.09
77321;BME280;66382;52.252;8.780;2024-01-30T07:57:51;101653.06;;;6.24;66.63
77321;BME280;66382;52.252;8.780;2024-01-30T08:00:18;101648.59;;;6.24;67.04
77321;BME280;66382;52.252;8.780;2024-01-30T08:02:45;101650.75;;;6.31;67.31
77321;BME280;66382;52.252;8.780;2024-01-30T08:05:10;101652.97;;;6.35;66.82
77321;BME280;66382;52.252;8.780;2024-01-30T08:07:36;101637.97;;;6.34;66.67
77321;BME280;66382;52.252;8.780;2024-01-30T08:10:01;101644.47;;;6.41;66.21
77321;BME280;66382;52.252;8.780;2024-01-30T08:12:27;101639.72;;;6.45;66.15
77321;BME280;66382;52.252;8.780;2024-01-30T08:14:52;101646.59;;;6.47;66.40
77321;BME280;66382;52.252;8.780;2024-01-30T08:17:17;101629.91;;;6.45;66.74
77321;BME280;66382;52.252;8.780;2024-01-30T08:19:44;101638.19;;;6.52;66.29
77321;BME280;66382;52.252;8.780;2024-01-30T08:22:10;101639.75;;;6.55;67.24
77321;BME280;66382;52.252;8.780;2024-01-30T08:24:35;101641.28;;;6.57;66.56
77321;BME280;66382;52.252;8.780;2024-01-30T08:27:01;101636.69;;;6.59;66.80
77321;BME280;66382;52.252;8.780;2024-01-30T08:29:26;101650.84;;;6.60;66.93
77321;BME280;66382;52.252;8.780;2024-01-30T08:31:52;101642.28;;;6.56;66.77
77321;BME280;66382;52.252;8.780;2024-01-30T08:34:17;101636.28;;;6.64;67.15
77321;BME280;66382;52.252;8.780;2024-01-30T08:36:44;101637.00;;;6.66;67.10
77321;BME280;66382;52.252;8.780;2024-01-30T08:39:09;101647.50;;;6.67;67.15
77321;BME280;66382;52.252;8.780;2024-01-30T08:41:35;101644.72;;;6.69;67.04
77321;BME280;66382;52.252;8.780;2024-01-30T08:44:00;101635.88;;;6.68;67.36
77321;BME280;66382;52.252;8.780;2024-01-30T08:46:26;101636.31;;;6.74;66.99
77321;BME280;66382;52.252;8.780;2024-01-30T08:48:51;101641.38;;;6.77;66.59
77321;BME280;66382;52.252;8.780;2024-01-30T08:51:16;101645.19;;;6.84;66.77
77321;BME280;66382;52.252;8.780;2024-01-30T08:53:44;101649.28;;;6.88;66.91
77321;BME280;66382;52.252;8.780;2024-01-30T08:56:09;101649.13;;;6.89;65.96
77321;BME280;66382;52.252;8.780;2024-01-30T08:58:35;101655.75;;;6.95;66.71
77321;BME280;66382;52.252;8.780;2024-01-30T09:01:00;101653.50;;;7.00;66.17
77321;BME280;66382;52.252;8.780;2024-01-30T09:03:25;101660.81;;;7.08;66.26
77321;BME280;66382;52.252;8.780;2024-01-30T09:05:51;101651.13;;;7.17;66.26
77321;BME280;66382;52.252;8.780;2024-01-30T09:08:16;101652.44;;;7.22;66.25
77321;BME280;66382;52.252;8.780;2024-01-30T09:10:43;101655.13;;;7.32;66.47
77321;BME280;66382;52.252;8.780;2024-01-30T09:13:08;101649.22;;;7.38;66.40
77321;BME280;66382;52.252;8.780;2024-01-30T09:15:34;101626.03;;;7.29;66.21
77321;BME280;66382;52.252;8.780;2024-01-30T09:17:59;101652.16;;;7.45;66.22
77321;BME280;66382;52.252;8.780;2024-01-30T09:20:25;101645.84;;;7.46;66.73
77321;BME280;66382;52.252;8.780;2024-01-30T09:22:50;101645.97;;;7.54;66.09
77321;BME280;66382;52.252;8.780;2024-01-30T09:25:16;101650.47;;;7.53;67.09
77321;BME280;66382;52.252;8.780;2024-01-30T09:27:42;101630.13;;;7.52;66.16
77321;BME280;66382;52.252;8.780;2024-01-30T09:30:08;101644.84;;;7.66;66.19
77321;BME280;66382;52.252;8.780;2024-01-30T09:32:34;101644.84;;;7.76;67.32
77321;BME280;66382;52.252;8.780;2024-01-30T09:34:59;101650.34;;;7.84;66.49
77321;BME280;66382;52.252;8.780;2024-01-30T09:37:25;101638.63;;;7.95;66.58
77321;BME280;66382;52.252;8.780;2024-01-30T09:39:50;101648.19;;;8.07;66.50
77321;BME280;66382;52.252;8.780;2024-01-30T09:42:22;101641.25;;;8.24;65.97
77321;BME280;66382;52.252;8.780;2024-01-30T09:44:53;101650.38;;;8.41;67.06
77321;BME280;66382;52.252;8.780;2024-01-30T09:47:19;101633.91;;;8.46;66.79
77321;BME280;66382;52.252;8.780;2024-01-30T09:49:44;101644.38;;;8.57;65.92
77321;BME280;66382;52.252;8.780;2024-01-30T09:52:11;101647.31;;;8.64;65.87
77321;BME280;66382;52.252;8.780;2024-01-30T09:54:38;101652.22;;;8.68;65.92
77321;BME280;66382;52.252;8.780;2024-01-30T09:57:04;101650.78;;;8.74;65.95
77321;BME280;66382;52.252;8.780;2024-01-30T09:59:29;101651.19;;;8.79;65.62
77321;BME280;66382;52.252;8.780;2024-01-30T10:01:57;101644.00;;;8.79;65.70
77321;BME280;66382;52.252;8.780;2024-01-30T10:04:22;101653.94;;;8.87;66.02
77321;BME280;66382;52.252;8.780;2024-01-30T10:06:48;101647.47;;;8.90;66.28
77321;BME280;66382;52.252;8.780;2024-01-30T10:09:13;101633.16;;;8.81;65.79
77321;BME280;66382;52.252;8.780;2024-01-30T10:11:39;101649.00;;;8.92;65.42
77321;BME280;66382;52.252;8.780;2024-01-30T10:14:04;101650.38;;;8.96;65.79
77321;BME280;66382;52.252;8.780;2024-01-30T10:16:30;101649.25;;;8.99;66.02
77321;BME280;66382;52.252;8.780;2024-01-30T10:18:57;101638.84;;;8.96;65.65
77321;BME280;66382;52.252;8.780;2024-01-30T10:21:23;101646.25;;;9.02;65.96
77321;BME280;66382;52.252;8.780;2024-01-30T10:23:49;101652.31;;;9.04;66.09
77321;BME280;66382;52.252;8.780;2024-01-30T10:26:16;101646.50;;;9.09;65.86
77321;BME280;66382;52.252;8.780;2024-01-30T10:28:41;101628.69;;;8.99;66.22
77321;BME280;66382;52.252;8.780;2024-01-30T10:31:07;101652.25;;;9.14;65.98
77321;BME280;66382;52.252;8.780;2024-01-30T10:33:32;101647.44;;;9.17;65.92
77321;BME280;66382;52.252;8.780;2024-01-30T10:36:01;101637.28;;;9.21;65.82
77321;BME280;66382;52.252;8.780;2024-01-30T10:38:28;101646.97;;;9.22;66.21
77321;BME280;66382;52.252;8.780;2024-01-30T10:40:56;101642.31;;;9.24;66.56
77321;BME280;66382;52.252;8.780;2024-01-30T10:43:22;101648.75;;;9.31;66.40
77321;BME280;66382;52.252;8.780;2024-01-30T10:45:49;101642.88;;;9.45;66.39
77321;BME280;66382;52.252;8.780;2024-01-30T10:48:18;101641.38;;;9.69;66.49
77321;BME280;66382;52.252;8.780;2024-01-30T10:50:47;101637.38;;;9.91;66.45
77321;BME280;66382;52.252;8.780;2024-01-30T10:53:16;101633.66;;;10.10;65.94
77321;BME280;66382;52.252;8.780;2024-01-30T10:55:43;101634.47;;;10.28;65.97
77321;BME280;66382;52.252;8.780;2024-01-30T10:58:11;101625.38;;;10.47;66.05
77321;BME280;66382;52.252;8.780;2024-01-30T11:00:36;101627.66;;;10.68;66.33
77321;BME280;66382;52.252;8.780;2024-01-30T11:03:03;101618.94;;;10.74;65.75
77321;BME280;66382;52.252;8.780;2024-01-30T11:05:29;101627.56;;;10.94;65.36
77321;BME280;66382;52.252;8.780;2024-01-30T11:07:54;101617.00;;;11.01;65.47
77321;BME280;66382;52.252;8.780;2024-01-30T11:10:25;101600.38;;;10.97;64.54
77321;BME280;66382;52.252;8.780;2024-01-30T11:12:50;101604.28;;;11.11;65.69
77321;BME280;66382;52.252;8.780;2024-01-30T11:15:16;101604.63;;;11.16;65.59
77321;BME280;66382;52.252;8.780;2024-01-30T11:17:50;101599.44;;;11.23;65.70
77321;BME280;66382;52.252;8.780;2024-01-30T11:20:16;101594.56;;;11.27;65.45
77321;BME280;66382;52.252;8.780;2024-01-30T11:22:44;101582.31;;;11.24;65.20
77321;BME280;66382;52.252;8.780;2024-01-30T11:25:11;101595.44;;;11.35;64.45
77321;BME280;66382;52.252;8.780;2024-01-30T11:27:38;101601.47;;;11.37;65.79
77321;BME280;66382;52.252;8.780;2024-01-30T11:30:05;101597.78;;;11.38;65.00
77321;BME280;66382;52.252;8.780;2024-01-30T11:32:31;101594.22;;;11.30;65.44
77321;BME280;66382;52.252;8.780;2024-01-30T11:34:56;101599.44;;;11.39;65.18
77321;BME280;66382;52.252;8.780;2024-01-30T11:37:25;101600.47;;;11.38;65.04
77321;BME280;66382;52.252;8.780;2024-01-30T11:39:51;101605.84;;;11.38;64.69
77321;BME280;66382;52.252;8.780;2024-01-30T11:42:16;101607.69;;;11.38;65.12
77321;BME280;66382;52.252;8.780;2024-01-30T11:44:47;101608.53;;;11.38;65.23
77321;BME280;66382;52.252;8.780;2024-01-30T11:47:13;101598.78;;;11.37;64.86
77321;BME280;66382;52.252;8.780;2024-01-30T11:49:39;101597.09;;;11.36;65.83
77321;BME280;66382;52.252;8.780;2024-01-30T11:52:05;101552.63;;;11.09;65.23
77321;BME280;66382;52.252;8.780;2024-01-30T11:54:31;101572.41;;;11.16;65.34
77321;BME280;66382;52.252;8.780;2024-01-30T11:56:56;101594.75;;;11.33;64.84
77321;BME280;66382;52.252;8.780;2024-01-30T11:59:22;101599.28;;;11.33;65.55
77321;BME280;66382;52.252;8.780;2024-01-30T12:01:49;101608.66;;;11.37;65.54
77321;BME280;66382;52.252;8.780;2024-01-30T12:04:16;101607.84;;;11.36;65.14
77321;BME280;66382;52.252;8.780;2024-01-30T12:06:42;101602.31;;;11.38;65.42
77321;BME280;66382;52.252;8.780;2024-01-30T12:09:09;101584.34;;;11.38;64.81
77321;BME280;66382;52.252;8.780;2024-01-30T12:11:43;101587.03;;;11.38;65.04
77321;BME280;66382;52.252;8.780;2024-01-30T12:14:09;101600.66;;;11.45;65.24
77321;BME280;66382;52.252;8.780;2024-01-30T12:16:34;101609.03;;;11.50;65.50
77321;BME280;66382;52.252;8.780;2024-01-30T12:19:01;101609.53;;;11.54;65.17
77321;BME280;66382;52.252;8.780;2024-01-30T12:21:26;101586.19;;;11.46;64.94
77321;BME280;66382;52.252;8.780;2024-01-30T12:23:52;101588.06;;;11.46;65.35
77321;BME280;66382;52.252;8.780;2024-01-30T12:26:17;101613.91;;;11.63;65.51
77321;BME280;66382;52.252;8.780;2024-01-30T12:28:49;101623.47;;;11.66;65.47
77321;BME280;66382;52.252;8.780;2024-01-30T12:31:15;101586.19;;;11.46;64.84
77321;BME280;66382;52.252;8.780;2024-01-30T12:33:40;101613.41;;;11.68;65.25
77321;BME280;66382;52.252;8.780;2024-01-30T12:36:08;101614.22;;;11.68;64.86
77321;BME280;66382;52.252;8.780;2024-01-30T12:38:33;101614.56;;;11.65;64.99
77321;BME280;66382;52.252;8.780;2024-01-30T12:40:59;101611.56;;;11.60;65.50
77321;BME280;66382;52.252;8.780;2024-01-30T12:43:25;101615.91;;;11.61;64.76
77321;BME280;66382;52.252;8.780;2024-01-30T12:45:52;101622.94;;;11.62;66.08
77321;BME280;66382;52.252;8.780;2024-01-30T12:48:17;101614.41;;;11.58;65.26
77321;BME280;66382;52.252;8.780;2024-01-30T12:50:43;101617.91;;;11.59;65.01